Terminal Aerodrome Forecast
Issued by NWS Wakefield, VA

Home | Current Version | Previous Version | Text Only | Print | Product List | Glossary On
Versions: 1 2 3 4 5 6 7 8 9 10 11 12 13
310
FTUS41 KAKQ 140522
TAFRIC
TAF
KRIC 140522Z 1406/1506 34006KT P6SM SCT250
     FM142100 VRB04KT P6SM SCT080 BKN150
     FM150300 15005KT P6SM VCSH SCT025 OVC040=

USA.gov is the U.S. government's official web portal to all federal, state and local government web resources and services.